SBUL/UDI METAR and TAF weather

Enter ICAO airport designator
Station Type Date Time Source
SBUL METAR 2019/12/10 19:00 UTC NOAA

SBUL 101900Z 05012KT 9999 VCSH SCT010 FEW035TCU 27/18 Q1014


Station Type Date Time Source
SBUL Decoded METAR 2019/12/10 19:00 UTC NOAA

Uberlandia , Brazil (SBUL) 18-53S 048-14W
Dec 10, 2019 - 02:00 PM EST / 2019.12.10 1900 UTC
Wind: from the NE (050 degrees) at 14 MPH (12 KT):0
Visibility: greater than 7 mile(s):0
Sky conditions: partly cloudy
Weather: showers in the vicinity; Towering cumulus clouds observed
Temperature: 80 F (27 C)
Dew Point: 64 F (18 C)
Relative Humidity: 57%
Pressure (altimeter): 29.94 in. Hg (1014 hPa)
ob: SBUL 101900Z 05012KT 9999 VCSH SCT010 FEW035TCU 27/18 Q1014
cycle: 19

Station Type Date Time Source
SBUL TAF 2019/12/10 18:30 UTC NOAA

TAF SBUL 101609Z 1018/1106 35008KT 9999 SCT025 FEW045TCUTX27/1018Z TN22/1105Z PROB40 1018/1020 32010KT 7000 TSRA BKN020 FEW050CB PROB30 1020/1102 05007KT 8000 TSRA SCT030 FEW045CB PROB30 1102/1106 8000 RA BKN030
RMK PHM

Example: see airport list